Time;durP1;ratioP1;P1;durP2;ratioP2;P2;SDS_P1;SDS_P2;PMS_P1;PMS_P2;Temp;Humidity;BMP_temperature;BMP_pressure;BME280_temperature;BME280_humidity;BME280_pressure;Samples;Min_cycle;Max_cycle;Signal;HPM_P1;HPM_P2
2023/05/19 04:03:49;;;;;;;8.75;5.95;;;;;;;11.93;100.00;101015.38;6575388;27;20063;-84
2023/05/19 04:06:53;;;;;;;7.30;5.40;;;;;;;11.98;100.00;101023.81;6576161;27;34403;-84
2023/05/19 04:09:56;;;;;;;10.13;5.75;;;;;;;12.03;100.00;101021.44;6576234;27;33475;-83
2023/05/19 04:12:59;;;;;;;10.48;5.97;;;;;;;12.05;100.00;101023.97;6577647;27;33606;-83
2023/05/19 04:16:02;;;;;;;9.70;5.60;;;;;;;12.12;100.00;101022.28;6558370;27;33640;-83
2023/05/19 04:19:05;;;;;;;7.15;5.30;;;;;;;12.18;100.00;101022.41;6576407;27;33802;-83
2023/05/19 04:22:09;;;;;;;8.52;5.85;;;;;;;12.23;100.00;101019.22;6576377;27;34620;-83
2023/05/19 04:25:13;;;;;;;9.95;6.22;;;;;;;12.33;100.00;101022.56;6558019;27;33778;-83
2023/05/19 04:28:16;;;;;;;9.75;6.15;;;;;;;12.39;100.00;101029.94;6576586;27;33412;-83
2023/05/19 04:31:20;;;;;;;8.35;6.10;;;;;;;12.40;100.00;101036.19;6578854;27;33902;-83
2023/05/19 04:34:23;;;;;;;9.32;6.75;;;;;;;12.50;100.00;101036.00;6558475;27;34561;-83
2023/05/19 04:37:26;;;;;;;8.65;6.18;;;;;;;12.59;100.00;101034.97;6578109;27;33966;-83
2023/05/19 04:40:29;;;;;;;9.40;6.90;;;;;;;12.74;100.00;101045.88;6577444;27;33565;-83
2023/05/19 04:43:33;;;;;;;11.75;6.90;;;;;;;12.81;100.00;101042.31;6578110;27;33313;-83
2023/05/19 04:46:36;;;;;;;10.05;6.45;;;;;;;12.93;100.00;101040.87;6570324;27;34441;-82
2023/05/19 04:49:39;;;;;;;10.90;6.70;;;;;;;13.08;100.00;101042.84;6569992;27;33866;-83
2023/05/19 04:52:44;;;;;;;8.05;6.22;;;;;;;13.21;100.00;101050.34;6578739;27;34550;-83
2023/05/19 04:55:49;;;;;;;8.85;5.90;;;;;;;13.38;100.00;101060.06;6578910;27;34240;-85
2023/05/19 04:58:52;;;;;;;12.65;6.32;;;;;;;13.57;100.00;101050.63;6577839;27;34265;-85
2023/05/19 05:01:56;;;;;;;11.35;6.70;;;;;;;13.70;100.00;101050.87;6577142;27;34514;-84
2023/05/19 05:04:59;;;;;;;10.32;6.70;;;;;;;13.81;100.00;101045.03;6582840;27;34600;-85
2023/05/19 05:08:04;;;;;;;12.57;7.47;;;;;;;14.01;100.00;101058.91;6591886;27;34461;-85
2023/05/19 05:11:08;;;;;;;10.57;6.57;;;;;;;14.15;100.00;101059.91;6581741;27;33897;-84
2023/05/19 05:14:11;;;;;;;14.68;7.22;;;;;;;14.42;100.00;101063.91;6577849;27;33930;-84
2023/05/19 05:17:16;;;;;;;9.13;6.20;;;;;;;14.35;100.00;101062.09;6575930;27;33973;-84
2023/05/19 05:20:19;;;;;;;12.90;7.43;;;;;;;14.46;100.00;101064.34;6579223;27;33880;-84
2023/05/19 05:23:23;;;;;;;12.00;7.55;;;;;;;14.61;100.00;101067.09;6541319;27;33784;-85
2023/05/19 05:26:32;;;;;;;14.75;8.15;;;;;;;14.48;100.00;101075.84;6560251;27;33450;-84
2023/05/19 05:29:35;;;;;;;10.02;7.22;;;;;;;14.44;100.00;101080.78;6578636;27;33949;-81
2023/05/19 05:32:41;;;;;;;10.40;7.28;;;;;;;14.64;100.00;101078.41;6560405;27;34241;-83
2023/05/19 05:35:45;;;;;;;11.35;7.47;;;;;;;14.71;100.00;101075.75;6541185;27;34013;-83
2023/05/19 05:38:48;;;;;;;10.88;7.60;;;;;;;14.78;100.00;101082.13;6577352;27;34094;-83
2023/05/19 05:41:52;;;;;;;10.07;7.28;;;;;;;15.10;100.00;101067.31;6578457;27;33402;-83
2023/05/19 05:44:57;;;;;;;12.93;7.78;;;;;;;15.38;100.00;101064.69;6559624;27;33787;-87
2023/05/19 05:48:01;;;;;;;12.05;7.85;;;;;;;15.43;100.00;101067.66;6559464;27;33855;-87
2023/05/19 05:51:07;;;;;;;11.50;8.07;;;;;;;15.63;100.00;101067.87;6576426;27;34536;-88
2023/05/19 05:54:11;;;;;;;10.07;7.45;;;;;;;15.62;100.00;101059.94;6576714;27;34202;-83
2023/05/19 05:57:15;;;;;;;10.95;7.00;;;;;;;15.45;100.00;101070.22;6578679;27;34519;-83
2023/05/19 06:00:20;;;;;;;12.13;7.68;;;;;;;15.30;100.00;101069.44;6577292;27;34673;-83
2023/05/19 06:03:25;;;;;;;11.98;7.10;;;;;;;15.37;100.00;101073.87;6576303;27;34575;-83
2023/05/19 06:06:29;;;;;;;9.73;7.35;;;;;;;15.39;100.00;101063.69;6576415;27;33773;-83
2023/05/19 06:09:34;;;;;;;14.27;7.60;;;;;;;15.48;100.00;101069.81;6559267;27;34360;-83
2023/05/19 06:12:42;;;;;;;25.15;11.05;;;;;;;15.39;100.00;101063.69;6578029;27;34659;-83
2023/05/19 06:15:45;;;;;;;45.33;15.25;;;;;;;15.50;100.00;101070.47;6559822;27;34579;-83
2023/05/19 06:18:48;;;;;;;7.93;6.45;;;;;;;15.53;100.00;101071.94;6540346;27;34112;-83
2023/05/19 06:21:51;;;;;;;9.05;6.15;;;;;;;15.47;100.00;101078.13;6576792;27;33530;-83
2023/05/19 06:24:55;;;;;;;9.10;6.43;;;;;;;15.53;100.00;101075.50;6578060;27;33855;-83
2023/05/19 06:27:58;;;;;;;8.82;6.10;;;;;;;15.87;100.00;101082.94;6576896;27;34273;-83
2023/05/19 06:31:02;;;;;;;8.38;6.12;;;;;;;16.04;100.00;101088.94;6577987;27;33917;-83
2023/05/19 06:34:09;;;;;;;9.75;5.95;;;;;;;16.07;100.00;101083.12;6559072;27;33011;-82
2023/05/19 06:37:13;;;;;;;8.05;6.30;;;;;;;16.06;100.00;101091.47;6559023;27;34983;-82
2023/05/19 06:40:16;;;;;;;11.82;6.35;;;;;;;15.74;100.00;101101.00;6576954;27;33783;-83
2023/05/19 06:43:20;;;;;;;9.88;6.20;;;;;;;15.75;100.00;101086.41;6558288;27;33970;-83
2023/05/19 06:46:25;;;;;;;9.13;7.00;;;;;;;15.93;100.00;101097.63;6576759;27;33821;-83
2023/05/19 06:49:29;;;;;;;8.32;6.22;;;;;;;16.02;100.00;101104.59;6576336;27;33755;-83
2023/05/19 06:52:32;;;;;;;9.75;6.85;;;;;;;16.18;100.00;101102.66;6558394;27;33676;-83
2023/05/19 06:55:35;;;;;;;7.78;6.30;;;;;;;16.49;100.00;101110.38;6576701;27;34675;-83
2023/05/19 06:58:52;;;;;;;10.73;6.78;;;;;;;16.71;100.00;101109.28;6577014;27;34014;-83
2023/05/19 07:01:57;;;;;;;9.18;6.57;;;;;;;16.95;100.00;101110.69;6587281;27;33500;-83
2023/05/19 07:05:00;;;;;;;10.35;6.25;;;;;;;16.91;100.00;101117.59;6593803;27;33805;-83
2023/05/19 07:08:04;;;;;;;10.32;6.93;;;;;;;16.93;100.00;101110.03;6590485;27;34306;-83
2023/05/19 07:11:09;;;;;;;8.40;6.78;;;;;;;17.02;100.00;101107.16;6573048;27;34810;-83
2023/05/19 07:14:12;;;;;;;8.80;6.55;;;;;;;16.94;100.00;101103.59;6579016;27;33587;-83
2023/05/19 07:17:15;;;;;;;8.60;6.90;;;;;;;17.01;100.00;101106.31;6560544;27;33725;-83
2023/05/19 07:20:18;;;;;;;12.45;7.15;;;;;;;17.39;100.00;101103.12;6578516;27;34607;-83
2023/05/19 07:23:23;;;;;;;12.10;7.50;;;;;;;17.30;100.00;101107.91;6599472;27;34089;-83
2023/05/19 07:26:27;;;;;;;11.07;7.82;;;;;;;17.63;100.00;101099.81;6580391;27;33327;-82
2023/05/19 07:29:30;;;;;;;9.93;7.47;;;;;;;18.13;100.00;101107.66;6602143;27;33735;-83
2023/05/19 07:32:33;;;;;;;13.10;7.12;;;;;;;18.53;100.00;101103.00;6579640;27;34292;-88
2023/05/19 07:35:36;;;;;;;12.57;6.80;;;;;;;18.55;100.00;101094.63;6559921;27;34835;-89
2023/05/19 07:38:39;;;;;;;10.82;6.97;;;;;;;18.58;100.00;101094.19;6577180;27;33978;-88
2023/05/19 07:41:42;;;;;;;9.65;6.62;;;;;;;18.49;100.00;101090.03;6577676;27;33575;-85
2023/05/19 07:44:45;;;;;;;10.98;6.72;;;;;;;18.45;100.00;101095.03;6589969;27;34066;-84
2023/05/19 07:47:48;;;;;;;9.23;5.82;;;;;;;18.64;100.00;101096.06;6603764;27;34327;-83
2023/05/19 07:50:51;;;;;;;8.85;5.10;;;;;;;18.57;100.00;101087.91;6605661;27;33458;-83
2023/05/19 07:53:54;;;;;;;10.38;4.90;;;;;;;18.79;100.00;101084.94;6585608;27;33809;-83
2023/05/19 07:56:57;;;;;;;6.50;4.85;;;;;;;18.95;100.00;101086.34;6585448;27;33839;-82
2023/05/19 08:00:00;;;;;;;5.93;4.32;;;;;;;18.98;100.00;101084.03;6585434;27;34013;-83
2023/05/19 08:03:16;;;;;;;6.60;4.97;;;;;;;18.98;99.26;101086.75;6605373;27;33845;-82
2023/05/19 08:06:20;;;;;;;6.12;4.45;;;;;;;19.34;98.94;101082.59;6586235;27;35317;-83
2023/05/19 08:09:22;;;;;;;4.65;3.97;;;;;;;19.73;100.00;101077.13;6567388;27;34141;-82
2023/05/19 08:12:25;;;;;;;5.43;4.28;;;;;;;20.35;97.67;101078.91;6567407;27;34556;-83
2023/05/19 08:15:28;;;;;;;4.30;3.47;;;;;;;20.61;93.57;101074.25;6585594;27;33998;-82
2023/05/19 08:18:31;;;;;;;5.82;3.70;;;;;;;20.53;88.13;101069.94;6604984;27;34313;-82
2023/05/19 08:21:34;;;;;;;5.85;4.22;;;;;;;20.22;91.71;101067.28;6604841;27;33692;-82
2023/05/19 08:24:38;;;;;;;8.00;3.95;;;;;;;20.34;95.14;101070.94;6605578;27;35180;-83
2023/05/19 08:27:40;;;;;;;4.57;3.67;;;;;;;20.65;95.45;101059.06;6585708;27;33497;-82
2023/05/19 08:30:43;;;;;;;8.55;3.95;;;;;;;20.65;90.54;101067.28;6585304;27;33849;-82
2023/05/19 08:33:46;;;;;;;5.03;4.12;;;;;;;20.43;91.81;101069.56;6567228;27;34113;-82
2023/05/19 08:36:49;;;;;;;5.35;3.90;;;;;;;20.10;93.85;101070.72;6585287;27;34936;-82
2023/05/19 08:39:51;;;;;;;7.68;3.85;;;;;;;20.20;93.88;101072.94;6585395;27;34009;-82
2023/05/19 08:42:55;;;;;;;5.97;3.62;;;;;;;19.73;96.52;101063.47;6584797;27;35171;-82
2023/05/19 08:45:59;;;;;;;6.28;3.97;;;;;;;19.75;96.48;101067.66;6567189;27;34508;-82
2023/05/19 08:49:09;;;;;;;4.10;3.47;;;;;;;19.72;98.86;101064.53;6604143;27;33952;-82
2023/05/19 08:52:36;;;;;;;4.55;3.25;;;;;;;19.47;95.09;101066.12;6604496;27;34761;-82
2023/05/19 08:56:00;;;;;;;4.32;3.60;;;;;;;19.57;94.61;101065.66;6604599;27;34093;-82
2023/05/19 08:59:04;;;;;;;4.95;3.17;;;;;;;20.04;92.90;101063.44;6605340;27;33828;-82
2023/05/19 09:02:10;;;;;;;3.83;3.47;;;;;;;20.29;90.58;101065.28;6604295;27;33473;-83
2023/05/19 09:05:15;;;;;;;4.07;3.40;;;;;;;20.64;83.97;101073.78;6585563;27;35108;-87
2023/05/19 09:08:18;;;;;;;5.53;3.65;;;;;;;20.65;84.25;101061.81;6604978;27;34691;-87
2023/05/19 09:11:21;;;;;;;4.68;3.53;;;;;;;20.74;88.78;101062.34;6585019;27;33938;-87
2023/05/19 09:14:25;;;;;;;5.68;3.40;;;;;;;20.81;86.76;101058.44;6587095;27;33419;-83
2023/05/19 09:17:27;;;;;;;4.12;3.60;;;;;;;20.90;88.00;101063.63;6587857;27;34553;-83
2023/05/19 09:20:30;;;;;;;5.00;3.50;;;;;;;20.86;88.00;101068.72;6568133;27;33776;-83
2023/05/19 09:23:33;;;;;;;4.62;3.50;;;;;;;21.24;88.97;101071.16;6585998;27;34905;-83
2023/05/19 09:26:37;;;;;;;4.40;3.28;;;;;;;20.91;85.12;101066.09;6617768;27;33765;-83
2023/05/19 09:29:40;;;;;;;6.00;3.65;;;;;;;20.80;87.47;101072.38;6617169;27;34113;-83
2023/05/19 09:32:44;;;;;;;4.15;3.75;;;;;;;20.91;85.62;101063.38;6586309;27;34045;-83
2023/05/19 09:35:47;;;;;;;5.15;3.40;;;;;;;21.13;84.56;101071.94;6585818;27;34943;-83
2023/05/19 09:38:50;;;;;;;3.80;3.33;;;;;;;21.28;85.03;101057.84;6605183;27;34246;-83
2023/05/19 09:41:54;;;;;;;5.03;3.67;;;;;;;21.37;84.55;101059.22;6585334;27;34334;-83
2023/05/19 09:45:00;;;;;;;3.97;3.35;;;;;;;21.75;81.69;101058.00;6551650;27;34709;-83
2023/05/19 09:48:04;;;;;;;8.95;3.55;;;;;;;21.95;80.50;101061.25;6604368;27;35030;-83
2023/05/19 09:51:09;;;;;;;5.28;3.47;;;;;;;21.98;81.98;101062.69;6605459;27;34974;-82
2023/05/19 09:54:15;;;;;;;4.97;3.55;;;;;;;21.56;82.16;101056.41;6605048;27;35656;-83
2023/05/19 09:57:25;;;;;;;4.40;3.55;;;;;;;21.35;81.90;101047.59;6584162;27;33747;-83
2023/05/19 10:00:31;;;;;;;3.70;3.25;;;;;;;21.13;81.92;101047.31;6584991;27;33935;-83
2023/05/19 10:03:35;;;;;;;3.67;3.33;;;;;;;21.45;83.48;101038.88;6575926;27;34565;-83
2023/05/19 10:06:38;;;;;;;5.05;3.35;;;;;;;21.77;83.09;101036.69;6578430;27;33504;-83
2023/05/19 10:09:42;;;;;;;6.93;3.87;;;;;;;22.10;80.13;101036.13;6561021;27;33804;-83
2023/05/19 10:12:46;;;;;;;4.93;3.55;;;;;;;22.35;78.40;101035.91;6559855;27;34427;-83
2023/05/19 10:15:51;;;;;;;4.40;3.72;;;;;;;22.36;78.67;101034.81;6578336;27;34862;-82
2023/05/19 10:18:58;;;;;;;6.95;3.90;;;;;;;21.88;77.42;101033.13;6577372;27;34270;-83
2023/05/19 10:22:02;;;;;;;5.00;3.70;;;;;;;22.17;76.94;101020.41;6579175;27;33482;-83
2023/05/19 10:25:05;;;;;;;4.18;3.40;;;;;;;22.65;75.56;101021.19;6576601;27;33391;-83
2023/05/19 10:28:15;;;;;;;4.20;3.50;;;;;;;22.53;72.67;101025.88;6587095;27;33672;-84
2023/05/19 10:31:21;;;;;;;5.55;3.85;;;;;;;22.94;72.36;101021.22;6581182;27;33476;-83
2023/05/19 10:34:43;;;;;;;4.95;3.33;;;;;;;22.69;74.92;101013.28;6579732;27;33820;-83
2023/05/19 10:37:48;;;;;;;5.28;3.28;;;;;;;22.99;72.23;101024.09;6585880;27;33792;-84
2023/05/19 10:40:54;;;;;;;5.25;3.40;;;;;;;23.20;75.31;101017.09;6588298;27;33654;-87
2023/05/19 10:44:28;;;;;;;3.40;2.95;;;;;;;22.70;74.45;101021.31;6585194;27;34830;-84
2023/05/19 10:47:32;;;;;;;5.25;3.33;;;;;;;23.14;77.79;101018.03;6580976;27;34298;-83
2023/05/19 10:50:36;;;;;;;4.93;3.08;;;;;;;23.43;73.20;101016.13;6577747;27;33881;-83
2023/05/19 10:53:44;;;;;;;3.95;2.83;;;;;;;24.51;72.68;101005.78;6578282;27;34058;-83
2023/05/19 10:56:47;;;;;;;3.62;2.87;;;;;;;25.56;66.37;100998.12;6576686;27;33818;-83
2023/05/19 10:59:50;;;;;;;3.03;2.70;;;;;;;26.10;64.51;101005.44;6533437;27;34625;-84
2023/05/19 11:03:22;;;;;;;3.67;3.37;;;;;;;24.93;63.61;100996.06;6543711;27;34664;-83
2023/05/19 11:06:37;;;;;;;3.20;2.90;;;;;;;23.71;70.50;100991.34;6579030;27;33569;-83
2023/05/19 11:09:40;;;;;;;3.30;2.95;;;;;;;23.36;72.35;100990.72;6598679;27;34668;-84
2023/05/19 11:12:44;;;;;;;3.35;2.90;;;;;;;23.39;70.81;100979.22;6598818;27;33907;-84
2023/05/19 11:15:48;;;;;;;3.08;2.70;;;;;;;24.76;68.08;100976.88;6579318;27;34460;-84
2023/05/19 11:18:53;;;;;;;2.80;2.60;;;;;;;25.95;64.73;100975.00;6597632;27;33872;-84
2023/05/19 11:22:09;;;;;;;3.45;2.65;;;;;;;26.55;60.58;100973.66;6585888;27;34532;-84
2023/05/19 11:25:37;;;;;;;5.22;2.90;;;;;;;27.21;58.17;100972.25;6605422;27;33850;-84
2023/05/19 11:28:40;;;;;;;4.43;2.60;;;;;;;27.81;55.79;100974.19;6585925;27;32086;-87
2023/05/19 11:31:43;;;;;;;3.58;2.80;;;;;;;29.05;52.19;100969.91;6567517;27;33813;-88
2023/05/19 11:34:48;;;;;;;4.00;2.62;;;;;;;27.49;56.05;100973.63;6606051;27;33805;-88
2023/05/19 11:37:53;;;;;;;5.95;2.70;;;;;;;26.06;58.46;100973.94;6604542;27;33870;-88
2023/05/19 11:40:56;;;;;;;4.65;2.45;;;;;;;25.79;58.89;100974.00;6606269;27;33797;-84
2023/05/19 11:43:59;;;;;;;4.30;2.80;;;;;;;25.19;59.36;100966.91;6588727;27;33494;-84
2023/05/19 11:47:03;;;;;;;3.25;2.80;;;;;;;25.75;59.06;100970.97;6619272;27;33963;-85
2023/05/19 11:50:06;;;;;;;3.53;2.62;;;;;;;26.08;55.69;100969.00;6600554;27;33964;-84
2023/05/19 11:53:13;;;;;;;3.40;2.45;;;;;;;26.37;55.83;100969.44;6566579;27;34648;-84
2023/05/19 11:56:18;;;;;;;2.62;2.40;;;;;;;27.54;55.97;100966.16;6586571;27;34574;-84
2023/05/19 11:59:31;;;;;;;2.55;2.35;;;;;;;30.40;49.23;100974.00;6586226;27;33936;-84
2023/05/19 12:02:37;;;;;;;5.85;2.75;;;;;;;30.67;43.84;100967.81;6604951;27;33936;-84
2023/05/19 12:05:44;;;;;;;2.05;1.95;;;;;;;31.36;42.79;100969.06;6605601;27;34249;-84
2023/05/19 12:08:50;;;;;;;;;;;;;;;31.35;41.98;100970.19;6593739;27;33875;-84
2023/05/19 12:11:54;;;;;;;3.05;2.10;;;;;;;31.13;43.34;100961.63;6609553;27;34915;-83
2023/05/19 12:14:56;;;;;;;2.12;1.92;;;;;;;32.17;39.72;100956.78;6588212;27;33886;-83
2023/05/19 12:18:01;;;;;;;2.25;2.05;;;;;;;33.96;37.91;100950.66;6584825;27;34503;-84
2023/05/19 12:21:04;;;;;;;3.10;1.80;;;;;;;36.22;30.55;100941.53;6607745;27;33819;-83
2023/05/19 12:24:08;;;;;;;5.15;2.28;;;;;;;37.11;29.21;100942.25;6606428;27;33889;-84
2023/05/19 12:27:17;;;;;;;8.27;1.83;;;;;;;37.13;27.49;100933.50;6568120;27;33501;-84
2023/05/19 12:30:25;;;;;;;2.20;2.00;;;;;;;34.00;31.09;100932.09;6606069;27;34843;-83
2023/05/19 12:33:28;;;;;;;2.25;2.05;;;;;;;31.30;36.41;100931.31;6606133;27;33839;-83
2023/05/19 12:36:31;;;;;;;2.30;2.10;;;;;;;30.16;38.98;100927.59;6606038;27;34616;-83
2023/05/19 12:39:35;;;;;;;3.15;2.00;;;;;;;31.69;35.81;100918.97;6586289;27;34593;-83
2023/05/19 12:42:44;;;;;;;2.53;1.85;;;;;;;33.36;33.90;100914.81;6586420;27;33918;-83
2023/05/19 12:45:47;;;;;;;3.12;2.17;;;;;;;35.24;31.04;100907.66;6586471;27;33472;-83
2023/05/19 12:48:50;;;;;;;2.25;2.05;;;;;;;34.62;31.30;100905.19;6605727;27;33838;-83
2023/05/19 12:51:53;;;;;;;2.12;1.92;;;;;;;35.91;28.01;100886.56;6585683;27;33869;-84
2023/05/19 12:55:15;;;;;;;2.58;2.20;;;;;;;33.46;32.23;100895.00;6567364;27;36002;-84
2023/05/19 12:58:18;;;;;;;3.00;1.98;;;;;;;36.80;28.26;100897.75;6605628;27;33467;-84
2023/05/19 13:01:22;;;;;;;1.52;1.40;;;;;;;37.52;27.76;100898.41;6590722;27;34507;-87
2023/05/19 13:04:26;;;;;;;4.18;1.90;;;;;;;36.98;28.94;100890.00;6608235;27;35428;-88
2023/05/19 13:07:29;;;;;;;1.65;1.55;;;;;;;37.25;28.54;100887.78;6573665;27;34291;-88
2023/05/19 13:10:36;;;;;;;1.90;1.67;;;;;;;36.55;27.20;100900.41;6569274;27;33728;-84
2023/05/19 13:13:39;;;;;;;5.40;2.10;;;;;;;36.03;30.13;100886.66;6567839;27;34804;-84
2023/05/19 13:16:42;;;;;;;2.10;1.30;;;;;;;36.60;26.61;100888.19;6585413;27;34384;-85
2023/05/19 13:19:45;;;;;;;2.45;1.80;;;;;;;38.11;25.11;100880.31;6585247;27;34832;-84
2023/05/19 13:22:49;;;;;;;3.90;1.67;;;;;;;38.14;25.61;100882.44;6585429;27;33631;-84
2023/05/19 13:25:51;;;;;;;1.70;1.60;;;;;;;38.77;22.97;100874.34;6585707;27;33843;-84
2023/05/19 13:28:55;;;;;;;1.80;1.70;;;;;;;38.43;24.86;100872.94;6568119;27;33614;-84
2023/05/19 13:31:58;;;;;;;1.58;1.23;;;;;;;39.30;23.79;100874.28;6585469;27;33490;-84
2023/05/19 13:35:03;;;;;;;1.23;1.23;;;;;;;38.76;24.23;100863.47;6567814;27;34616;-84
2023/05/19 13:38:08;;;;;;;4.45;1.65;;;;;;;37.36;26.63;100856.12;6568009;27;33888;-84
2023/05/19 13:41:12;;;;;;;1.80;1.70;;;;;;;35.05;28.58;100857.66;6586746;27;34732;-84
2023/05/19 13:44:17;;;;;;;3.00;1.58;;;;;;;34.26;30.94;100855.94;6587044;27;33766;-84
2023/05/19 13:47:22;;;;;;;2.58;1.80;;;;;;;36.29;28.53;100847.28;6586732;27;33452;-84
2023/05/19 13:50:25;;;;;;;5.03;1.80;;;;;;;36.47;26.42;100849.97;6605933;27;34713;-84
2023/05/19 13:53:29;;;;;;;1.65;1.55;;;;;;;35.44;29.21;100841.75;6568466;27;34750;-83
2023/05/19 13:56:32;;;;;;;3.53;2.03;;;;;;;32.36;32.16;100848.00;6606225;27;34580;-84
2023/05/19 13:59:35;;;;;;;2.35;1.73;;;;;;;30.14;35.37;100849.28;6568327;27;33486;-83
2023/05/19 14:02:55;;;;;;;1.80;1.70;;;;;;;31.50;34.25;100843.03;6573257;27;33510;-83
2023/05/19 14:05:58;;;;;;;2.08;1.80;;;;;;;32.39;32.18;100844.59;6568271;27;34616;-83
2023/05/19 14:09:01;;;;;;;6.60;2.00;;;;;;;30.50;34.34;100837.69;6575680;27;33865;-83
2023/05/19 14:12:05;;;;;;;1.95;1.85;;;;;;;30.00;36.21;100846.38;6589513;27;35145;-83
2023/05/19 14:15:08;;;;;;;3.67;2.05;;;;;;;28.70;38.85;100849.00;6586244;27;34531;-83
2023/05/19 14:18:13;;;;;;;2.03;1.90;;;;;;;27.86;40.40;100848.00;6587641;27;34896;-83
2023/05/19 14:21:16;;;;;;;2.62;2.40;;;;;;;27.57;40.37;100843.06;6559650;27;34175;-83
2023/05/19 14:24:19;;;;;;;9.35;2.17;;;;;;;27.45;42.99;100837.03;6593265;27;34386;-83
2023/05/19 14:27:22;;;;;;;2.90;2.00;;;;;;;26.92;46.05;100837.31;6568658;27;34649;-83
2023/05/19 14:30:25;;;;;;;5.10;2.72;;;;;;;26.70;41.70;100834.78;6586303;27;33854;-82
2023/05/19 14:33:27;;;;;;;3.65;2.40;;;;;;;25.90;45.11;100843.34;6568479;27;33929;-83
2023/05/19 14:36:36;;;;;;;3.08;2.40;;;;;;;26.11;47.23;100837.94;6605779;27;34453;-83
2023/05/19 14:39:39;;;;;;;3.12;2.55;;;;;;;25.34;47.20;100838.31;6586579;27;33976;-83
2023/05/19 14:42:42;;;;;;;4.80;2.37;;;;;;;25.74;46.34;100833.31;6586454;27;34007;-83
2023/05/19 14:45:45;;;;;;;4.15;2.35;;;;;;;25.82;48.32;100837.50;6580758;27;156840;-82
2023/05/19 14:48:48;;;;;;;2.47;2.28;;;;;;;25.59;47.31;100833.22;6567713;27;35292;-82
2023/05/19 14:51:50;;;;;;;3.67;2.85;;;;;;;25.34;50.01;100838.31;6586653;27;33658;-82
2023/05/19 14:54:54;;;;;;;5.80;2.37;;;;;;;25.23;47.93;100839.31;6567476;27;34293;-82
2023/05/19 14:57:57;;;;;;;4.90;2.33;;;;;;;24.91;47.83;100839.31;6585748;27;34014;-83
2023/05/19 15:01:00;;;;;;;2.75;2.55;;;;;;;25.10;50.29;100837.00;6586147;27;33493;-83
2023/05/19 15:04:03;;;;;;;4.55;2.85;;;;;;;24.79;50.48;100828.47;6586547;27;33948;-83
2023/05/19 15:07:07;;;;;;;2.97;2.60;;;;;;;24.81;51.54;100830.97;6587129;27;33986;-82
2023/05/19 15:10:12;;;;;;;2.83;2.62;;;;;;;24.85;50.64;100824.66;6587587;27;33890;-83
2023/05/19 15:13:17;;;;;;;3.67;2.37;;;;;;;24.90;49.81;100826.66;6586484;27;33477;-83
2023/05/19 15:16:20;;;;;;;2.95;2.65;;;;;;;24.82;49.04;100827.13;6586176;27;33814;-84
2023/05/19 15:19:23;;;;;;;3.00;2.65;;;;;;;24.77;48.52;100819.63;6605724;27;34370;-83
2023/05/19 15:22:26;;;;;;;2.78;2.58;;;;;;;24.91;50.62;100817.28;6605648;27;33728;-83
2023/05/19 15:25:29;;;;;;;2.83;2.20;;;;;;;24.35;50.83;100814.78;6568655;27;34651;-83
2023/05/19 15:28:33;;;;;;;4.32;2.50;;;;;;;24.36;51.06;100821.13;6586295;27;34128;-83
2023/05/19 15:31:36;;;;;;;5.95;2.72;;;;;;;24.38;50.59;100818.94;6586358;27;33452;-84
2023/05/19 15:34:40;;;;;;;3.72;2.50;;;;;;;23.95;51.30;100818.72;6568439;27;33880;-84
2023/05/19 15:37:42;;;;;;;4.25;2.85;;;;;;;23.95;51.74;100826.16;6585861;27;33595;-84
2023/05/19 15:40:45;;;;;;;3.80;2.53;;;;;;;23.90;51.92;100823.34;6568516;27;34488;-84
2023/05/19 15:43:48;;;;;;;4.47;2.70;;;;;;;23.67;51.12;100816.97;6607232;27;33416;-84
2023/05/19 15:46:51;;;;;;;4.00;2.70;;;;;;;23.69;52.97;100819.44;6578894;27;34264;-84
2023/05/19 15:49:57;;;;;;;2.80;2.42;;;;;;;23.63;53.20;100812.22;6586696;27;34356;-84
2023/05/19 15:52:59;;;;;;;6.25;3.03;;;;;;;23.62;53.73;100821.56;6571440;27;33976;-84
2023/05/19 15:56:03;;;;;;;3.67;2.58;;;;;;;23.24;54.58;100814.97;6555058;27;34517;-84
